createdAt,value
2022-10-11T00:01:11.569Z,70.2
2022-10-11T00:02:27.991Z,70.2
2022-10-11T00:03:44.180Z,70.2
2022-10-11T00:05:00.356Z,70.2
2022-10-11T00:06:16.544Z,70.2
2022-10-11T00:07:32.518Z,70.2
2022-10-11T00:08:48.927Z,69.8
2022-10-11T00:10:04.132Z,70.1
2022-10-11T00:11:20.327Z,70.2
2022-10-11T00:12:36.291Z,70
2022-10-11T00:13:52.466Z,70.3
2022-10-11T00:15:08.894Z,70.2
2022-10-11T00:16:25.087Z,70.3
2022-10-11T00:17:41.269Z,70.3
2022-10-11T00:18:57.459Z,70.3
2022-10-11T00:20:13.635Z,70.3
2022-10-11T00:21:29.830Z,70.2
2022-10-11T00:22:46.022Z,70.1
2022-10-11T00:24:01.991Z,70.2
2022-10-11T00:25:18.410Z,70.3
2022-10-11T00:26:33.386Z,70.4
2022-10-11T00:27:49.792Z,70.3
2022-10-11T00:29:05.751Z,70.4
2022-10-11T00:30:22.180Z,70.4
2022-10-11T00:31:38.354Z,70.3
2022-10-11T00:32:54.546Z,70.4
2022-10-11T00:34:10.737Z,70.3
2022-10-11T00:35:26.939Z,70.4
2022-10-11T00:36:43.116Z,70.4
2022-10-11T00:37:59.069Z,70.3
2022-10-11T00:39:15.490Z,70.5
2022-10-11T00:40:31.675Z,70.2
2022-10-11T00:41:47.880Z,70.3
2022-10-11T00:43:03.071Z,70.3
2022-10-11T00:44:19.261Z,70.3
2022-10-11T00:45:35.453Z,70.6
2022-10-11T00:46:51.638Z,70.6
2022-10-11T00:48:07.826Z,70.5
2022-10-11T00:49:24.016Z,70.5
2022-10-11T00:50:40.199Z,70.6
2022-10-11T00:51:56.162Z,70.6
2022-10-11T00:53:12.345Z,70.5
2022-10-11T00:54:28.758Z,70.6
2022-10-11T00:55:44.962Z,70.6
2022-10-11T00:57:01.138Z,70.6
2022-10-11T00:58:17.323Z,70.7
2022-10-11T00:59:32.552Z,70.6
2022-10-11T01:00:48.488Z,70.6
2022-10-11T01:02:04.909Z,70.6
2022-10-11T01:03:21.101Z,70.5
2022-10-11T01:04:37.033Z,70.7
2022-10-11T01:05:53.231Z,70.7
2022-10-11T01:07:09.417Z,70.7
2022-10-11T01:08:25.592Z,70.8
2022-10-11T01:09:42.021Z,70.7
2022-10-11T01:10:58.205Z,70.8
2022-10-11T01:12:14.419Z,70.8
2022-10-11T01:13:30.357Z,70.7
2022-10-11T01:14:46.772Z,70.8
2022-10-11T01:16:01.741Z,70.8
2022-10-11T01:17:18.173Z,70.8
2022-10-11T01:18:34.356Z,70.8
2022-10-11T01:19:50.550Z,70.8
2022-10-11T01:21:06.734Z,70.8
2022-10-11T01:22:22.914Z,70.8
2022-10-11T01:23:38.856Z,70.7
2022-10-11T01:24:55.285Z,70.8
2022-10-11T01:26:11.241Z,70.8
2022-10-11T01:27:27.675Z,70.9
2022-10-11T01:28:43.852Z,70.9
2022-10-11T01:29:59.805Z,70.9
2022-10-11T01:31:16.234Z,70.9
2022-10-11T01:32:31.433Z,70.9
2022-10-11T01:33:47.628Z,70.7
2022-10-11T01:35:03.810Z,70.7
2022-10-11T01:37:36.186Z,70.8
2022-10-11T01:38:52.377Z,70.9
2022-10-11T01:40:08.546Z,70.8
2022-10-11T01:41:24.739Z,70.7
2022-10-11T01:42:40.938Z,70.9
2022-10-11T01:43:57.123Z,70.8
2022-10-11T01:45:13.295Z,70.9
2022-10-11T01:46:29.243Z,70.8
2022-10-11T01:47:45.683Z,70.9
2022-10-11T01:49:00.889Z,70.9
2022-10-11T01:50:17.071Z,70.9
2022-10-11T01:51:33.266Z,70.9
2022-10-11T01:52:49.440Z,71
2022-10-11T01:54:05.640Z,70.9
2022-10-11T01:55:21.562Z,70.8
2022-10-11T01:56:37.031Z,70.8
2022-10-11T01:57:53.208Z,70.8
2022-10-11T01:59:09.404Z,71
2022-10-11T02:00:25.589Z,70.8
2022-10-11T02:01:41.531Z,71
2022-10-11T02:02:57.715Z,70.9
2022-10-11T02:04:13.889Z,71
2022-10-11T02:05:30.345Z,71
2022-10-11T02:06:46.528Z,71.1
2022-10-11T02:08:02.721Z,71
2022-10-11T02:09:18.654Z,71
2022-10-11T02:10:35.082Z,71.1
2022-10-11T02:11:51.281Z,71.1
2022-10-11T02:13:06.483Z,71
2022-10-11T02:14:22.401Z,71.2
2022-10-11T02:15:38.598Z,71.2
2022-10-11T02:16:54.788Z,71.1
2022-10-11T02:18:11.224Z,71.2
2022-10-11T02:19:27.412Z,71.2
2022-10-11T02:20:43.336Z,71.2
2022-10-11T02:21:59.788Z,71.2
2022-10-11T02:23:15.981Z,71.2
2022-10-11T02:24:32.165Z,71.2
2022-10-11T02:25:48.344Z,71.3
2022-10-11T02:27:04.536Z,71.3
2022-10-11T02:28:20.728Z,71.3
2022-10-11T02:29:35.926Z,71.2
2022-10-11T02:30:52.110Z,71.1
2022-10-11T02:32:08.304Z,71.2
2022-10-11T02:33:24.234Z,71.3
2022-10-11T02:34:40.685Z,71.3
2022-10-11T02:35:56.853Z,71.2
2022-10-11T02:37:13.057Z,71.3
2022-10-11T02:38:29.230Z,71.3
2022-10-11T02:39:45.427Z,71.2
2022-10-11T02:41:01.609Z,71.2
2022-10-11T02:42:17.549Z,71.3
2022-10-11T02:43:33.989Z,71.2
2022-10-11T02:44:50.169Z,71.3
2022-10-11T02:46:05.113Z,71.3
2022-10-11T02:47:21.300Z,71.3
2022-10-11T02:48:37.496Z,71.4
2022-10-11T02:49:53.933Z,71.3
2022-10-11T02:51:10.120Z,71.3
2022-10-11T02:52:26.317Z,71.3
2022-10-11T02:53:42.508Z,71.3
2022-10-11T02:54:58.694Z,71.2
2022-10-11T02:56:14.868Z,71.4
2022-10-11T02:57:31.063Z,71.3
2022-10-11T02:58:46.979Z,71.4
2022-10-11T03:00:03.440Z,71.4
2022-10-11T03:01:19.621Z,71.4
2022-10-11T03:02:34.817Z,71.3
2022-10-11T03:03:51.020Z,71.4
2022-10-11T03:05:07.202Z,71.5
2022-10-11T03:06:23.127Z,71.5
2022-10-11T03:07:39.306Z,71.5
2022-10-11T03:08:55.767Z,71.5
2022-10-11T03:10:11.955Z,71.5
2022-10-11T03:11:27.864Z,71.5
2022-10-11T03:12:44.057Z,71.5
2022-10-11T03:14:00.504Z,71.5
2022-10-11T03:15:16.695Z,71.5
2022-10-11T03:16:32.884Z,71.5
2022-10-11T03:17:49.066Z,71.5
2022-10-11T03:19:04.280Z,71.5
2022-10-11T03:20:20.455Z,71.5
2022-10-11T03:21:36.655Z,71.5
2022-10-11T03:22:52.836Z,71.6
2022-10-11T03:24:09.034Z,71.6
2022-10-11T03:25:25.212Z,71.6
2022-10-11T03:26:41.407Z,71.6
2022-10-11T03:27:57.587Z,71.6
2022-10-11T03:29:13.778Z,71.5
2022-10-11T03:30:29.954Z,71.6
2022-10-11T03:31:46.145Z,71.6
2022-10-11T03:33:02.059Z,71.6
2022-10-11T03:34:18.526Z,71.6
2022-10-11T03:35:33.727Z,71.5
2022-10-11T03:36:49.926Z,71.6
2022-10-11T03:38:05.839Z,71.6
2022-10-11T03:39:22.293Z,71.6
2022-10-11T03:40:38.482Z,71.6
2022-10-11T03:41:54.383Z,71.6
2022-10-11T03:43:10.850Z,71.6
2022-10-11T03:44:26.776Z,71.6
2022-10-11T03:45:43.231Z,71.7
2022-10-11T03:46:59.406Z,71.6
2022-10-11T03:48:15.324Z,71.7
2022-10-11T03:49:31.519Z,71.7
2022-10-11T03:50:47.986Z,71.8
2022-10-11T03:52:02.909Z,71.7
2022-10-11T03:53:19.095Z,71.7
2022-10-11T03:54:35.545Z,71.7
2022-10-11T03:55:51.470Z,71.7
2022-10-11T03:57:07.919Z,71.7
2022-10-11T03:58:24.114Z,71.7
2022-10-11T03:59:40.305Z,71.7
2022-10-11T04:00:56.217Z,71.8
2022-10-11T04:02:12.394Z,71.7
2022-10-11T04:03:28.582Z,71.8
2022-10-11T04:04:45.062Z,71.7
2022-10-11T04:06:01.250Z,71.7
2022-10-11T04:07:17.424Z,71.8
2022-10-11T04:08:32.632Z,71.7
2022-10-11T04:09:48.818Z,71.7
2022-10-11T04:11:04.728Z,71.8
2022-10-11T04:12:21.191Z,71.8
2022-10-11T04:13:37.389Z,71.9
2022-10-11T04:14:53.575Z,71.8
2022-10-11T04:16:09.755Z,71.9
2022-10-11T04:17:25.948Z,71.8
2022-10-11T04:18:41.853Z,71.8
2022-10-11T04:19:58.030Z,71.9
2022-10-11T04:21:14.499Z,71.8
2022-10-11T04:22:30.700Z,71.9
2022-10-11T04:23:46.887Z,71.9
2022-10-11T04:25:01.802Z,71.8
2022-10-11T04:26:17.981Z,71.9
2022-10-11T04:27:34.453Z,71.9
2022-10-11T04:28:50.639Z,71.9
2022-10-11T04:30:06.535Z,71.8
2022-10-11T04:31:23.024Z,71.8
2022-10-11T04:32:39.202Z,71.9
2022-10-11T04:33:55.397Z,71.9
2022-10-11T04:35:11.574Z,72
2022-10-11T04:36:27.761Z,71.9
2022-10-11T04:37:43.951Z,71.9
2022-10-11T04:39:00.130Z,71.9
2022-10-11T04:40:16.033Z,71.9
2022-10-11T04:41:31.241Z,71.9
2022-10-11T04:42:47.724Z,71.8
2022-10-11T04:44:03.900Z,71.9
2022-10-11T04:45:20.083Z,71.9
2022-10-11T04:46:36.001Z,72
2022-10-11T04:47:52.481Z,71.9
2022-10-11T04:49:08.653Z,71.9
2022-10-11T04:50:24.846Z,71.9
2022-10-11T04:51:40.736Z,72
2022-10-11T04:52:56.937Z,72
2022-10-11T04:54:13.402Z,71.9
2022-10-11T04:55:29.293Z,71.9
2022-10-11T04:56:45.773Z,71.9
2022-10-11T04:58:00.684Z,71.9
2022-10-11T04:59:17.164Z,71.9
2022-10-11T05:00:33.354Z,72
2022-10-11T05:01:49.546Z,72
2022-10-11T05:03:05.727Z,72
2022-10-11T05:04:21.617Z,72
2022-10-11T05:05:37.812Z,72
2022-10-11T05:06:54.297Z,72
2022-10-11T05:08:10.472Z,72.1
2022-10-11T05:09:26.658Z,72.1
2022-10-11T05:10:42.849Z,72.1
2022-10-11T05:11:58.751Z,72
2022-10-11T05:13:15.234Z,72
2022-10-11T05:14:30.441Z,72.1
2022-10-11T05:15:46.319Z,72
2022-10-11T05:17:02.810Z,72.1
2022-10-11T05:18:18.707Z,72.1
2022-10-11T05:19:35.181Z,72
2022-10-11T05:20:51.372Z,72
2022-10-11T05:22:07.551Z,72.1
2022-10-11T05:23:23.743Z,72
2022-10-11T05:24:39.637Z,72
2022-10-11T05:25:55.811Z,72.1
2022-10-11T05:27:12.012Z,72.1
2022-10-11T05:28:28.496Z,72.1
2022-10-11T05:29:44.689Z,72
2022-10-11T05:30:59.587Z,72.1
2022-10-11T05:32:16.071Z,72.1
2022-10-11T05:33:32.264Z,72.1
2022-10-11T05:34:48.145Z,72.1
2022-10-11T05:36:04.632Z,72
2022-10-11T05:37:20.827Z,72.1
2022-10-11T05:38:37.006Z,72.1
2022-10-11T05:39:52.894Z,72.1
2022-10-11T05:41:09.388Z,72.1
2022-10-11T05:42:25.269Z,72.1
2022-10-11T05:43:41.453Z,72.1
2022-10-11T05:44:57.932Z,72.1
2022-10-11T05:46:14.124Z,72.1
2022-10-11T05:47:29.328Z,72.1
2022-10-11T05:48:45.515Z,72.1
2022-10-11T05:50:01.713Z,72.1
2022-10-11T05:51:17.903Z,72.2
2022-10-11T05:52:33.785Z,72.1
2022-10-11T05:53:50.265Z,72
2022-10-11T05:55:06.144Z,72.1
2022-10-11T05:56:22.651Z,72.1
2022-10-11T05:57:38.774Z,72
2022-10-11T05:58:55.021Z,72
2022-10-11T06:00:11.205Z,72
2022-10-11T06:01:27.393Z,72.1
2022-10-11T06:02:43.571Z,72
2022-10-11T06:03:58.781Z,72
2022-10-11T06:05:14.929Z,72
2022-10-11T06:06:31.152Z,72
2022-10-11T06:07:47.343Z,72
2022-10-11T06:09:03.538Z,72
2022-10-11T06:10:19.722Z,72
2022-10-11T06:11:34.923Z,72
2022-10-11T06:12:51.107Z,72.1
2022-10-11T06:14:07.294Z,72.1
2022-10-11T06:15:23.497Z,72.1
2022-10-11T06:16:39.684Z,72
2022-10-11T06:17:55.866Z,72
2022-10-11T06:19:12.003Z,71.9
2022-10-11T06:20:28.233Z,71.9
2022-10-11T06:21:44.370Z,72
2022-10-11T06:23:00.617Z,71.8
2022-10-11T06:24:16.799Z,72
2022-10-11T06:25:32.937Z,71.9
2022-10-11T06:26:49.173Z,71.9
2022-10-11T06:28:04.327Z,72
2022-10-11T06:29:20.569Z,71.9
2022-10-11T06:30:36.752Z,72
2022-10-11T06:31:52.938Z,71.9
2022-10-11T06:33:09.124Z,71.8
2022-10-11T06:34:25.269Z,71.7
2022-10-11T06:35:41.451Z,71.7
2022-10-11T06:36:57.627Z,71.8
2022-10-11T06:38:13.830Z,71.6
2022-10-11T06:39:30.072Z,71.7
2022-10-11T06:40:46.249Z,71.8
2022-10-11T06:42:02.435Z,71.8
2022-10-11T06:43:18.573Z,71.8
2022-10-11T06:44:33.822Z,71.8
2022-10-11T06:45:49.968Z,72.8
2022-10-11T06:47:06.210Z,78.2
2022-10-11T06:48:22.386Z,78.6
2022-10-11T06:49:38.577Z,78.6
2022-10-11T06:50:54.759Z,77.9
2022-10-11T06:52:10.950Z,77.9
2022-10-11T06:53:27.148Z,77.2
2022-10-11T06:54:43.260Z,76.7
2022-10-11T06:55:59.508Z,76.2
2022-10-11T06:57:15.700Z,75.9
2022-10-11T06:58:31.836Z,75.5
2022-10-11T06:59:48.086Z,75.2
2022-10-11T07:01:03.211Z,74.8
2022-10-11T07:02:19.457Z,74.7
2022-10-11T07:03:35.661Z,74.3
2022-10-11T07:04:51.839Z,74
2022-10-11T07:06:07.957Z,73.7
2022-10-11T07:07:24.221Z,73.7
2022-10-11T07:08:40.395Z,73.5
2022-10-11T07:09:56.591Z,73.5
2022-10-11T07:11:12.723Z,73.4
2022-10-11T07:12:28.964Z,73.4
2022-10-11T07:13:45.092Z,73.3
2022-10-11T07:15:01.334Z,73.3
2022-10-11T07:16:17.523Z,73.3
2022-10-11T07:17:32.726Z,73.1
2022-10-11T07:18:48.851Z,72.9
2022-10-11T07:20:05.046Z,73
2022-10-11T07:21:21.216Z,72.8
2022-10-11T07:22:37.470Z,72.9
2022-10-11T07:23:53.667Z,72.8
2022-10-11T07:25:09.782Z,72.8
2022-10-11T07:26:26.043Z,72.8
2022-10-11T07:27:42.230Z,72.8
2022-10-11T07:28:58.347Z,72.7
2022-10-11T07:30:14.597Z,72.8
2022-10-11T07:31:30.724Z,72.9
2022-10-11T07:32:46.977Z,72.8
2022-10-11T07:34:02.190Z,72.6
2022-10-11T07:35:18.363Z,72.6
2022-10-11T07:36:34.558Z,72.5
2022-10-11T07:37:50.741Z,72.6
2022-10-11T07:39:06.856Z,72.5
2022-10-11T07:40:23.106Z,72.5
2022-10-11T07:41:39.300Z,72.4
2022-10-11T07:42:55.499Z,72.4
2022-10-11T07:44:11.616Z,72.5
2022-10-11T07:45:27.872Z,72.4
2022-10-11T07:46:43.971Z,72.4
2022-10-11T07:48:00.243Z,72.3
2022-10-11T07:49:16.427Z,72.1
2022-10-11T07:50:31.635Z,71.9
2022-10-11T07:51:47.748Z,71.9
2022-10-11T07:53:04.002Z,72.3
2022-10-11T07:54:20.119Z,72.2
2022-10-11T07:55:36.381Z,72.1
2022-10-11T07:56:52.496Z,72.1
2022-10-11T07:58:08.675Z,72.2
2022-10-11T07:59:24.869Z,72.2
2022-10-11T08:00:41.120Z,72.2
2022-10-11T08:01:57.306Z,72.1
2022-10-11T08:03:13.435Z,72.1
2022-10-11T08:04:29.705Z,72
2022-10-11T08:05:45.797Z,71.9
2022-10-11T08:07:01.000Z,72
2022-10-11T08:08:17.263Z,72
2022-10-11T08:09:33.457Z,71.9
2022-10-11T08:10:49.643Z,71.9
2022-10-11T08:12:05.763Z,71.5
2022-10-11T08:13:22.013Z,71.8
2022-10-11T08:14:38.198Z,71.7
2022-10-11T08:15:54.000Z,71.7
2022-10-11T08:17:10.511Z,71.8
2022-10-11T08:18:26.771Z,71.8
2022-10-11T08:19:42.944Z,71.8
2022-10-11T08:20:59.135Z,71.8
2022-10-11T08:22:15.336Z,71.8
2022-10-11T08:23:30.540Z,71.7
2022-10-11T08:24:46.716Z,71.6
2022-10-11T08:26:02.910Z,71.7
2022-10-11T08:27:19.088Z,71.6
2022-10-11T08:28:35.271Z,71.6
2022-10-11T08:29:51.468Z,71.6
2022-10-11T08:31:07.662Z,71.6
2022-10-11T08:32:23.765Z,71.6
2022-10-11T08:33:40.019Z,71.5
2022-10-11T08:34:56.215Z,71.5
2022-10-11T08:36:12.404Z,71.4
2022-10-11T08:37:28.506Z,71.5
2022-10-11T08:38:44.782Z,71.4
2022-10-11T08:39:59.984Z,71.4
2022-10-11T08:41:16.075Z,71.4
2022-10-11T08:42:32.282Z,71.5
2022-10-11T08:43:48.552Z,71.4
2022-10-11T08:45:04.639Z,71.5
2022-10-11T08:46:20.910Z,71.5
2022-10-11T08:47:37.095Z,71.3
2022-10-11T08:48:53.294Z,71.4
2022-10-11T08:50:09.490Z,71.4
2022-10-11T08:51:25.674Z,71.4
2022-10-11T08:52:41.854Z,71.3
2022-10-11T08:53:57.948Z,71.3
2022-10-11T08:55:14.228Z,71.3
2022-10-11T08:56:29.426Z,71.2
2022-10-11T08:57:45.612Z,71.2
2022-10-11T08:59:01.803Z,71.2
2022-10-11T09:00:17.911Z,71.2
2022-10-11T09:01:34.186Z,71.1
2022-10-11T09:02:50.377Z,71
2022-10-11T09:04:06.552Z,71.1
2022-10-11T09:05:22.741Z,71
2022-10-11T09:06:38.844Z,70.9
2022-10-11T09:07:55.118Z,70.7
2022-10-11T09:09:11.309Z,70.7
2022-10-11T09:10:27.487Z,70.9
2022-10-11T09:11:43.675Z,71
2022-10-11T09:12:58.886Z,70.7
2022-10-11T09:14:15.075Z,70.7
2022-10-11T09:15:31.253Z,70.7
2022-10-11T09:16:47.441Z,71
2022-10-11T09:18:03.632Z,70.8
2022-10-11T09:19:19.720Z,70.8
2022-10-11T09:20:35.996Z,70.8
2022-10-11T09:21:52.199Z,70.8
2022-10-11T09:23:08.386Z,70.5
2022-10-11T09:24:24.577Z,70.5
2022-10-11T09:25:40.758Z,70.4
2022-10-11T09:26:56.850Z,70
2022-10-11T09:28:13.035Z,70
2022-10-11T09:29:28.327Z,70
2022-10-11T09:30:44.423Z,70.2
2022-10-11T09:32:00.610Z,70.2
2022-10-11T09:33:16.888Z,70
2022-10-11T09:34:32.996Z,70
2022-10-11T09:35:49.262Z,69.8
2022-10-11T09:37:05.464Z,70
2022-10-11T09:38:21.639Z,69.5
2022-10-11T09:39:37.833Z,69.3
2022-10-11T09:40:53.923Z,69.4
2022-10-11T09:42:10.197Z,69.3
2022-10-11T09:43:26.406Z,69.2
2022-10-11T09:44:42.489Z,69.4
2022-10-11T09:45:57.689Z,69.3
2022-10-11T09:47:13.878Z,69.1
2022-10-11T09:48:30.165Z,69.1
2022-10-11T09:49:46.343Z,69.1
2022-10-11T09:51:02.535Z,68.8
2022-10-11T09:52:18.711Z,69
2022-10-11T09:53:34.915Z,68.7
2022-10-11T09:54:50.993Z,68.9
2022-10-11T09:56:07.280Z,68.9
2022-10-11T09:57:23.478Z,68.4
2022-10-11T09:58:39.549Z,68.5
2022-10-11T09:59:55.851Z,68.3
2022-10-11T10:01:12.027Z,68.1
2022-10-11T10:02:27.232Z,68.4
2022-10-11T10:03:43.412Z,68.5
2022-10-11T10:04:59.608Z,68.4
2022-10-11T10:06:15.685Z,68.5
2022-10-11T10:07:31.978Z,68.3
2022-10-11T10:08:48.074Z,68.2
2022-10-11T10:10:04.254Z,68.1
2022-10-11T10:11:20.536Z,67.9
2022-10-11T10:12:36.737Z,68
2022-10-11T10:13:52.916Z,68
2022-10-11T10:15:09.096Z,67.8
2022-10-11T10:16:25.180Z,67.7
2022-10-11T10:17:41.487Z,67.6
2022-10-11T10:18:56.688Z,67.3
2022-10-11T10:20:12.878Z,67.2
2022-10-11T10:21:29.070Z,66.6
2022-10-11T10:22:45.262Z,66.6
2022-10-11T10:24:01.437Z,66.4
2022-10-11T10:25:17.632Z,66.1
2022-10-11T10:26:32.841Z,66.1
2022-10-11T10:27:49.030Z,65.6
2022-10-11T10:29:05.227Z,65.6
2022-10-11T10:30:21.304Z,65.6
2022-10-11T10:31:37.479Z,65.4
2022-10-11T10:32:53.669Z,65.1
2022-10-11T10:34:09.977Z,65
2022-10-11T10:35:26.153Z,64.9
2022-10-11T10:36:42.342Z,64.6
2022-10-11T10:37:58.538Z,64.3
2022-10-11T10:39:14.726Z,64.1
2022-10-11T10:40:30.921Z,64
2022-10-11T10:41:47.110Z,63.7
2022-10-11T10:43:02.314Z,64.4
2022-10-11T10:44:18.500Z,63.9
2022-10-11T10:45:34.695Z,63.4
2022-10-11T10:46:50.880Z,64
2022-10-11T10:48:07.075Z,63.8
2022-10-11T10:49:23.252Z,63.4
2022-10-11T10:50:39.443Z,63.1
2022-10-11T10:51:55.636Z,62.7
2022-10-11T10:53:11.813Z,62.6
2022-10-11T10:54:27.903Z,62.4
2022-10-11T10:55:44.085Z,62.3
2022-10-11T10:57:00.390Z,62.1
2022-10-11T10:58:16.576Z,62.2
2022-10-11T10:59:31.778Z,62
2022-10-11T11:00:47.862Z,61.9
2022-10-11T11:02:04.047Z,61.8
2022-10-11T11:03:20.349Z,61.5
2022-10-11T11:04:36.536Z,61.5
2022-10-11T11:05:52.733Z,61.2
2022-10-11T11:07:08.914Z,61
2022-10-11T11:08:24.983Z,60.8
2022-10-11T11:09:41.179Z,60.7
2022-10-11T11:10:57.486Z,61
2022-10-11T11:12:13.664Z,60.8
2022-10-11T11:13:29.859Z,61.1
2022-10-11T11:14:46.055Z,61.8
2022-10-11T11:16:01.260Z,61.9
2022-10-11T11:17:17.437Z,61
2022-10-11T11:18:33.638Z,60.5
2022-10-11T11:19:49.703Z,60.3
2022-10-11T11:21:06.013Z,60.2
2022-10-11T11:22:22.207Z,60.1
2022-10-11T11:23:38.391Z,60
2022-10-11T11:24:54.456Z,60
2022-10-11T11:26:10.652Z,60.3
2022-10-11T11:27:26.957Z,61.4
2022-10-11T11:28:43.149Z,61.4
2022-10-11T11:29:59.339Z,60.8
2022-10-11T11:31:15.514Z,60.4
2022-10-11T11:32:30.602Z,60.9
2022-10-11T11:33:46.908Z,61.9
2022-10-11T11:35:03.112Z,61.1
2022-10-11T11:36:19.299Z,61.2
2022-10-11T11:37:35.356Z,62.2
2022-10-11T11:38:51.547Z,62.1
2022-10-11T11:40:07.747Z,62.4
2022-10-11T11:41:24.049Z,61.6
2022-10-11T11:42:40.113Z,60.9
2022-10-11T11:43:56.438Z,60.4
2022-10-11T11:45:12.624Z,60.6
2022-10-11T11:46:28.811Z,60.9
2022-10-11T11:47:45.003Z,60.3
2022-10-11T11:49:00.072Z,59.9
2022-10-11T11:50:16.399Z,59.6
2022-10-11T11:51:32.587Z,59.4
2022-10-11T11:52:48.758Z,59.1
2022-10-11T11:54:04.964Z,59
2022-10-11T11:55:21.153Z,58.8
2022-10-11T11:56:37.327Z,58.7
2022-10-11T11:57:53.517Z,58.4
2022-10-11T11:59:09.720Z,58.1
2022-10-11T12:00:25.780Z,57.9
2022-10-11T12:01:42.093Z,57.7
2022-10-11T12:02:58.282Z,57.5
2022-10-11T12:04:14.338Z,57.3
2022-10-11T12:05:29.669Z,57.6
2022-10-11T12:06:45.867Z,58.1
2022-10-11T12:08:01.932Z,57.9
2022-10-11T12:09:18.233Z,58.5
2022-10-11T12:10:34.315Z,59.6
2022-10-11T12:11:50.613Z,60.3
2022-10-11T12:13:06.807Z,60.3
2022-10-11T12:14:22.995Z,58.9
2022-10-11T12:15:39.184Z,57.9
2022-10-11T12:16:55.246Z,57.1
2022-10-11T12:18:11.436Z,56.6
2022-10-11T12:19:27.757Z,56.4
2022-10-11T12:20:43.939Z,56.2
2022-10-11T12:21:59.154Z,56.1
2022-10-11T12:23:15.340Z,56
2022-10-11T12:24:31.527Z,55.8
2022-10-11T12:25:47.726Z,55.8
2022-10-11T12:27:03.777Z,56.9
2022-10-11T12:28:19.976Z,58.4
2022-10-11T12:29:36.154Z,59.5
2022-10-11T12:30:52.477Z,60.1
2022-10-11T12:32:08.671Z,60.4
2022-10-11T12:33:24.728Z,60.8
2022-10-11T12:34:41.050Z,61
2022-10-11T12:35:57.101Z,60.9
2022-10-11T12:37:13.412Z,60.8
2022-10-11T12:38:28.636Z,58.7
2022-10-11T12:39:44.683Z,57.2
2022-10-11T12:41:00.879Z,56.3
2022-10-11T12:42:17.054Z,57
2022-10-11T12:43:33.393Z,58.1
2022-10-11T12:44:49.576Z,59
2022-10-11T12:46:05.764Z,59.9
2022-10-11T12:47:21.945Z,60.6
2022-10-11T12:48:38.134Z,61
2022-10-11T12:49:54.337Z,61.3
2022-10-11T12:51:10.529Z,61.5
2022-10-11T12:52:26.721Z,61.7
2022-10-11T12:53:42.907Z,61.9
2022-10-11T12:54:57.969Z,62
2022-10-11T12:56:14.165Z,62
2022-10-11T12:57:30.341Z,62.1
2022-10-11T12:58:46.665Z,62.2
2022-10-11T13:00:02.857Z,62.5
2022-10-11T13:01:19.057Z,62.6
2022-10-11T13:02:35.238Z,62.7
2022-10-11T13:03:51.297Z,62.8
2022-10-11T13:05:07.612Z,62.9
2022-10-11T13:06:23.818Z,63
2022-10-11T13:07:39.861Z,63
2022-10-11T13:08:56.042Z,63.1
2022-10-11T13:10:12.234Z,63.1
2022-10-11T13:11:27.451Z,63.1
2022-10-11T13:12:43.764Z,63.3
2022-10-11T13:13:59.960Z,63.3
2022-10-11T13:15:16.161Z,63.3
2022-10-11T13:16:32.335Z,63.4
2022-10-11T13:17:48.525Z,63.4
2022-10-11T13:19:04.572Z,63.4
2022-10-11T13:20:20.905Z,63.3
2022-10-11T13:21:37.108Z,63.3
2022-10-11T13:22:53.287Z,63.2
2022-10-11T13:24:09.486Z,63.3
2022-10-11T13:25:25.669Z,63.3
2022-10-11T13:26:41.712Z,63.4
2022-10-11T13:27:57.058Z,63.4
2022-10-11T13:29:13.260Z,63.4
2022-10-11T13:30:29.432Z,63.5
2022-10-11T13:31:45.625Z,63.5
2022-10-11T13:33:01.669Z,63.5
2022-10-11T13:34:17.857Z,63.6
2022-10-11T13:35:34.204Z,63.7
2022-10-11T13:36:50.385Z,63.6
2022-10-11T13:38:06.583Z,63.7
2022-10-11T13:39:22.608Z,63.7
2022-10-11T13:40:38.960Z,63.7
2022-10-11T13:41:55.133Z,63.8
2022-10-11T13:43:11.178Z,63.8
2022-10-11T13:44:26.544Z,63.8
2022-10-11T13:45:42.737Z,63.8
2022-10-11T13:46:58.922Z,63.8
2022-10-11T13:48:15.101Z,63.9
2022-10-11T13:49:31.289Z,63.9
2022-10-11T13:50:47.483Z,63.9
2022-10-11T13:52:03.661Z,63.9
2022-10-11T13:53:19.856Z,63.9
2022-10-11T13:54:36.048Z,63.9
2022-10-11T13:55:52.229Z,63.9
2022-10-11T13:57:08.426Z,63.9
2022-10-11T13:58:24.620Z,63.9
2022-10-11T13:59:40.653Z,63.9
2022-10-11T14:00:56.010Z,64
2022-10-11T14:02:12.195Z,64.1
2022-10-11T14:03:28.391Z,64
2022-10-11T14:04:44.430Z,64.1
2022-10-11T14:06:00.764Z,64.1
2022-10-11T14:07:16.953Z,64
2022-10-11T14:08:33.146Z,64.1
2022-10-11T14:09:49.334Z,64.2
2022-10-11T14:11:05.366Z,64.3
2022-10-11T14:12:21.719Z,64.4
2022-10-11T14:13:37.758Z,64.5
2022-10-11T14:14:54.091Z,64.6
2022-10-11T14:16:10.288Z,64.6
2022-10-11T14:17:25.493Z,64.6
2022-10-11T14:18:41.526Z,64.7
2022-10-11T14:19:57.868Z,64.7
2022-10-11T14:21:14.052Z,64.5
2022-10-11T14:22:30.094Z,64.8
2022-10-11T14:23:46.437Z,64.8
2022-10-11T14:25:02.622Z,64.8
2022-10-11T14:26:18.649Z,64.9
2022-10-11T14:27:34.837Z,65
2022-10-11T14:28:51.186Z,65
2022-10-11T14:30:07.382Z,65
2022-10-11T14:31:23.559Z,65
2022-10-11T14:32:39.755Z,65
2022-10-11T14:33:54.796Z,65.1
2022-10-11T14:35:11.154Z,65.1
2022-10-11T14:36:27.336Z,65.1
2022-10-11T14:37:43.529Z,64.9
2022-10-11T14:38:59.709Z,64.8
2022-10-11T14:40:15.899Z,65
2022-10-11T14:41:31.116Z,65.1
2022-10-11T14:42:47.151Z,65.2
2022-10-11T14:44:03.329Z,65.2
2022-10-11T14:45:19.523Z,65.3
2022-10-11T14:46:35.867Z,65.3
2022-10-11T14:47:51.902Z,65.3
2022-10-11T14:49:08.097Z,65.4
2022-10-11T14:50:24.449Z,65.5
2022-10-11T14:51:40.458Z,65.5
2022-10-11T14:52:56.815Z,65.5
2022-10-11T14:54:12.840Z,65.6
2022-10-11T14:55:29.195Z,65.7
2022-10-11T14:56:45.390Z,65.7
2022-10-11T14:58:00.417Z,65.7
2022-10-11T14:59:16.773Z,65.8
2022-10-11T15:00:32.970Z,65.8
2022-10-11T15:01:49.002Z,65.8
2022-10-11T15:03:05.174Z,65.8
2022-10-11T15:04:21.544Z,65.9
2022-10-11T15:05:37.568Z,65.9
2022-10-11T15:06:53.924Z,65.9
2022-10-11T15:08:10.110Z,66
2022-10-11T15:09:26.123Z,66.1
2022-10-11T15:10:42.472Z,66.1
2022-10-11T15:11:58.672Z,66.1
2022-10-11T15:13:14.700Z,66.2
2022-10-11T15:14:29.888Z,66.3
2022-10-11T15:15:46.256Z,66.3
2022-10-11T15:17:02.450Z,66.3
2022-10-11T15:18:18.638Z,66.4
2022-10-11T15:19:34.823Z,66.4
2022-10-11T15:20:50.846Z,66.4
2022-10-11T15:22:07.209Z,66.5
2022-10-11T15:23:23.389Z,66.5
2022-10-11T15:24:39.583Z,66.6
2022-10-11T15:25:55.598Z,66.7
2022-10-11T15:27:11.789Z,66.7
2022-10-11T15:28:27.972Z,66.8
2022-10-11T15:29:44.331Z,66.8
2022-10-11T15:30:59.538Z,66.8
2022-10-11T15:32:15.732Z,66.8
2022-10-11T15:33:31.744Z,66.9
2022-10-11T15:34:48.114Z,66.9
2022-10-11T15:36:04.130Z,67
2022-10-11T15:37:20.477Z,67
2022-10-11T15:38:36.677Z,67.1
2022-10-11T15:39:52.692Z,67.1
2022-10-11T15:41:09.060Z,67.1
2022-10-11T15:42:25.234Z,67.2
2022-10-11T15:43:41.248Z,67.2
2022-10-11T15:44:57.622Z,67.1
2022-10-11T15:46:13.805Z,67.3
2022-10-11T15:47:29.009Z,67.3
2022-10-11T15:48:45.196Z,67.3
2022-10-11T15:50:01.399Z,67.3
2022-10-11T15:51:17.397Z,67.4
2022-10-11T15:52:33.592Z,67.4
2022-10-11T15:53:49.950Z,67.5
2022-10-11T15:55:06.144Z,67.5
2022-10-11T15:56:22.340Z,67.5
2022-10-11T15:57:38.522Z,67.5
2022-10-11T15:58:54.543Z,67.6
2022-10-11T16:00:10.900Z,67.6
2022-10-11T16:01:27.091Z,67.6
2022-10-11T16:02:43.284Z,67.7
2022-10-11T16:03:58.301Z,67.7
2022-10-11T16:05:14.487Z,67.7
2022-10-11T16:06:30.688Z,67.8
2022-10-11T16:07:47.058Z,67.8
2022-10-11T16:09:03.057Z,67.8
2022-10-11T16:10:19.426Z,67.8
2022-10-11T16:11:35.611Z,67.9
2022-10-11T16:12:51.802Z,67.9
2022-10-11T16:14:07.813Z,68
2022-10-11T16:15:24.183Z,68
2022-10-11T16:16:40.369Z,68
2022-10-11T16:17:56.381Z,68
2022-10-11T16:19:12.743Z,68
2022-10-11T16:20:27.781Z,68
2022-10-11T16:21:43.972Z,68.1
2022-10-11T16:23:00.334Z,68.1
2022-10-11T16:24:16.516Z,68.1
2022-10-11T16:25:32.723Z,68.2
2022-10-11T16:26:48.903Z,68.2
2022-10-11T16:28:05.096Z,68.2
2022-10-11T16:29:21.104Z,68.2
2022-10-11T16:30:37.289Z,68.2
2022-10-11T16:31:53.651Z,68.2
2022-10-11T16:33:09.848Z,68.3
2022-10-11T16:34:26.033Z,68.3
2022-10-11T16:35:42.221Z,68.3
2022-10-11T16:36:57.434Z,68.5
2022-10-11T16:38:13.617Z,68.5
2022-10-11T16:39:29.811Z,68.5
2022-10-11T16:40:46.000Z,68.5
2022-10-11T16:42:02.179Z,68.5
2022-10-11T16:43:18.199Z,68.5
2022-10-11T16:44:34.388Z,68.5
2022-10-11T16:45:50.559Z,68.5
2022-10-11T16:47:06.953Z,68.7
2022-10-11T16:48:23.124Z,68.7
2022-10-11T16:49:39.314Z,68.7
2022-10-11T16:50:55.504Z,68.7
2022-10-11T16:52:11.511Z,68.8
2022-10-11T16:53:26.901Z,68.7
2022-10-11T16:54:43.095Z,68.8
2022-10-11T16:55:59.094Z,68.8
2022-10-11T16:57:15.466Z,68.9
2022-10-11T16:58:31.667Z,68.9
2022-10-11T16:59:47.670Z,68.9
2022-10-11T17:01:04.043Z,68.9
2022-10-11T17:02:20.234Z,68.9
2022-10-11T17:03:36.413Z,68.9